createdAt,value
2022-08-27T00:02:00.420Z,53.40
2022-08-27T00:04:02.913Z,53.79
2022-08-27T00:06:05.269Z,53.92
2022-08-27T00:08:12.815Z,53.77
2022-08-27T00:10:27.724Z,54.03
2022-08-27T00:12:30.477Z,53.72
2022-08-27T00:14:33.290Z,54.05
2022-08-27T00:16:35.465Z,53.69
2022-08-27T00:18:40.227Z,53.97
2022-08-27T00:20:44.493Z,54.08
2022-08-27T00:22:46.490Z,53.97
2022-08-27T00:24:55.732Z,54.29
2022-08-27T00:26:57.740Z,54.43
2022-08-27T00:28:59.795Z,54.33
2022-08-27T00:31:02.432Z,54.35
2022-08-27T00:33:04.920Z,54.59
2022-08-27T00:35:08.730Z,54.95
2022-08-27T00:37:10.907Z,55.36
2022-08-27T00:39:12.915Z,55.26
2022-08-27T00:41:17.150Z,55.19
2022-08-27T00:43:23.868Z,55.51
2022-08-27T00:45:26.933Z,55.55
2022-08-27T00:47:33.813Z,55.84
2022-08-27T00:49:47.073Z,55.72
2022-08-27T00:52:12.181Z,55.85
2022-08-27T00:54:18.628Z,55.83
2022-08-27T00:56:28.423Z,55.89
2022-08-27T00:58:39.653Z,56.29
2022-08-27T01:00:41.949Z,56.32
2022-08-27T01:02:46.807Z,56.41
2022-08-27T01:05:09.968Z,56.63
2022-08-27T01:07:14.868Z,56.81
2022-08-27T01:09:18.599Z,56.66
2022-08-27T01:11:21.716Z,57.04
2022-08-27T01:13:40.814Z,56.71
2022-08-27T01:15:48.896Z,56.73
2022-08-27T01:17:51.593Z,56.92
2022-08-27T01:19:58.855Z,56.66
2022-08-27T01:22:09.700Z,56.83
2022-08-27T01:24:40.337Z,56.95
2022-08-27T01:26:42.349Z,56.92
2022-08-27T01:28:44.950Z,56.88
2022-08-27T01:30:47.253Z,56.63
2022-08-27T01:32:50.411Z,56.79
2022-08-27T01:35:06.752Z,56.77
2022-08-27T01:37:09.393Z,56.90
2022-08-27T01:39:12.990Z,56.79
2022-08-27T01:41:15.239Z,57.06
2022-08-27T01:43:17.637Z,57.13
2022-08-27T01:45:25.114Z,56.95
2022-08-27T01:47:31.452Z,56.91
2022-08-27T01:49:33.670Z,56.87
2022-08-27T01:51:35.893Z,57.14
2022-08-27T01:53:37.894Z,57.11
2022-08-27T01:55:40.944Z,57.33
2022-08-27T01:57:49.603Z,57.53
2022-08-27T01:59:51.600Z,57.44
2022-08-27T02:01:55.975Z,57.87
2022-08-27T02:03:58.169Z,57.69
2022-08-27T02:06:07.433Z,57.65
2022-08-27T02:08:09.617Z,57.85
2022-08-27T02:10:15.904Z,57.67
2022-08-27T02:12:17.838Z,57.85
2022-08-27T02:14:20.657Z,57.79
2022-08-27T02:16:22.734Z,57.61
2022-08-27T02:18:24.864Z,57.46
2022-08-27T02:20:27.952Z,57.55
2022-08-27T02:22:31.631Z,57.79
2022-08-27T02:24:33.694Z,57.87
2022-08-27T02:26:35.479Z,57.70
2022-08-27T02:28:37.444Z,57.99
2022-08-27T02:30:39.350Z,58.05
2022-08-27T02:32:41.203Z,58.28
2022-08-27T02:34:43.048Z,58.19
2022-08-27T02:36:44.924Z,58.50
2022-08-27T02:38:46.973Z,58.56
2022-08-27T02:40:48.777Z,58.53
2022-08-27T02:42:50.964Z,58.61
2022-08-27T02:44:55.081Z,58.37
2022-08-27T02:46:59.549Z,58.45
2022-08-27T02:49:01.386Z,58.67
2022-08-27T02:51:06.118Z,58.25
2022-08-27T02:53:09.354Z,58.60
2022-08-27T02:55:17.167Z,58.30
2022-08-27T02:57:19.573Z,58.48
2022-08-27T02:59:22.579Z,58.25
2022-08-27T03:01:24.625Z,58.28
2022-08-27T03:03:26.466Z,58.36
2022-08-27T03:05:28.694Z,58.15
2022-08-27T03:07:30.644Z,58.16
2022-08-27T03:09:32.859Z,57.90
2022-08-27T03:11:34.740Z,58.06
2022-08-27T03:13:38.264Z,58.04
2022-08-27T03:15:40.040Z,57.84
2022-08-27T03:18:01.323Z,57.99
2022-08-27T03:20:04.743Z,58.02
2022-08-27T03:22:07.060Z,57.87
2022-08-27T03:24:11.511Z,58.11
2022-08-27T03:26:13.747Z,57.99
2022-08-27T03:28:22.708Z,57.98
2022-08-27T03:30:25.418Z,58.11
2022-08-27T03:32:27.799Z,58.27
2022-08-27T03:34:30.088Z,58.05
2022-08-27T03:36:32.202Z,58.01
2022-08-27T03:38:34.573Z,58.13
2022-08-27T03:40:36.562Z,58.02
2022-08-27T03:42:39.212Z,57.90
2022-08-27T03:44:41.122Z,58.02
2022-08-27T03:46:44.797Z,58.14
2022-08-27T03:48:47.762Z,58.02
2022-08-27T03:50:54.097Z,57.88
2022-08-27T03:52:56.210Z,58.17
2022-08-27T03:54:59.217Z,58.22
2022-08-27T03:57:01.095Z,58.31
2022-08-27T03:59:03.122Z,58.37
2022-08-27T04:01:06.309Z,58.09
2022-08-27T04:03:08.622Z,58.01
2022-08-27T04:05:17.901Z,57.99
2022-08-27T04:07:20.162Z,58.03
2022-08-27T04:09:21.978Z,58.08
2022-08-27T04:11:24.217Z,58.07
2022-08-27T04:13:26.089Z,57.86
2022-08-27T04:15:28.029Z,58.14
2022-08-27T04:17:30.052Z,58.11
2022-08-27T04:19:34.277Z,58.41
2022-08-27T04:21:36.777Z,58.62
2022-08-27T04:23:40.892Z,58.32
2022-08-27T04:25:44.708Z,58.30
2022-08-27T04:27:47.254Z,58.31
2022-08-27T04:29:49.676Z,58.56
2022-08-27T04:31:53.816Z,58.63
2022-08-27T04:33:55.848Z,58.23
2022-08-27T04:36:07.638Z,58.27
2022-08-27T04:38:09.723Z,58.69
2022-08-27T04:40:12.222Z,58.56
2022-08-27T04:42:14.104Z,58.58
2022-08-27T04:44:16.504Z,58.79
2022-08-27T04:46:23.625Z,58.65
2022-08-27T04:48:25.973Z,58.67
2022-08-27T04:50:27.927Z,58.45
2022-08-27T04:52:30.088Z,58.61
2022-08-27T04:54:33.332Z,58.71
2022-08-27T04:56:36.687Z,58.59
2022-08-27T04:58:42.831Z,58.48
2022-08-27T05:00:48.678Z,58.73
2022-08-27T05:02:50.827Z,58.46
2022-08-27T05:04:52.686Z,58.47
2022-08-27T05:06:54.858Z,58.54
2022-08-27T05:08:57.566Z,58.66
2022-08-27T05:11:00.630Z,59.02
2022-08-27T05:13:02.511Z,58.77
2022-08-27T05:15:14.243Z,58.56
2022-08-27T05:17:16.045Z,58.38
2022-08-27T05:19:17.861Z,58.33
2022-08-27T05:21:24.698Z,58.41
2022-08-27T05:23:30.319Z,58.64
2022-08-27T05:25:32.430Z,58.56
2022-08-27T05:27:34.410Z,58.52
2022-08-27T05:29:36.345Z,58.74
2022-08-27T05:31:40.431Z,58.47
2022-08-27T05:33:43.660Z,58.46
2022-08-27T05:35:54.439Z,58.39
2022-08-27T05:37:56.122Z,58.51
2022-08-27T05:39:57.974Z,58.77
2022-08-27T05:41:59.832Z,58.86
2022-08-27T05:44:30.293Z,58.78
2022-08-27T05:46:31.422Z,58.66
2022-08-27T05:48:36.061Z,58.65
2022-08-27T05:50:41.475Z,58.50
2022-08-27T05:52:43.154Z,58.52
2022-08-27T05:54:44.938Z,58.93
2022-08-27T05:56:47.481Z,59.10
2022-08-27T05:59:08.783Z,58.77
2022-08-27T06:01:10.931Z,58.87
2022-08-27T06:03:13.255Z,59.21
2022-08-27T06:05:15.018Z,58.84
2022-08-27T06:07:17.351Z,58.93
2022-08-27T06:09:22.619Z,58.92
2022-08-27T06:11:24.537Z,58.87
2022-08-27T06:13:26.231Z,58.91
2022-08-27T06:15:27.872Z,59.03
2022-08-27T06:17:29.567Z,59.09
2022-08-27T06:19:31.323Z,59.22
2022-08-27T06:21:33.520Z,59.07
2022-08-27T06:23:36.238Z,59.12
2022-08-27T06:25:40.853Z,59.03
2022-08-27T06:27:42.485Z,59.05
2022-08-27T06:29:44.637Z,59.33
2022-08-27T06:31:46.325Z,59.67
2022-08-27T06:33:48.932Z,59.46
2022-08-27T06:35:50.587Z,59.45
2022-08-27T06:37:52.241Z,59.42
2022-08-27T06:39:54.021Z,59.18
2022-08-27T06:41:55.916Z,59.03
2022-08-27T06:43:58.475Z,59.21
2022-08-27T06:46:04.144Z,59.13
2022-08-27T06:48:07.717Z,59.29
2022-08-27T06:50:09.645Z,59.61
2022-08-27T06:52:11.391Z,59.65
2022-08-27T06:54:14.783Z,59.65
2022-08-27T06:56:17.476Z,59.53
2022-08-27T06:58:20.076Z,59.49
2022-08-27T07:00:21.710Z,59.45
2022-08-27T07:02:23.425Z,59.54
2022-08-27T07:04:32.210Z,59.64
2022-08-27T07:06:36.562Z,59.88
2022-08-27T07:08:39.660Z,59.69
2022-08-27T07:10:41.316Z,59.94
2022-08-27T07:12:43.493Z,59.57
2022-08-27T07:14:45.177Z,59.55
2022-08-27T07:16:48.208Z,59.63
2022-08-27T07:18:52.175Z,59.45
2022-08-27T07:20:54.708Z,59.39
2022-08-27T07:22:58.903Z,59.77
2022-08-27T07:25:00.596Z,59.75
2022-08-27T07:27:02.495Z,59.69
2022-08-27T07:29:07.324Z,59.34
2022-08-27T07:31:11.948Z,59.49
2022-08-27T07:33:15.039Z,59.34
2022-08-27T07:35:16.802Z,59.37
2022-08-27T07:37:18.477Z,59.08
2022-08-27T07:39:20.134Z,59.00
2022-08-27T07:41:23.286Z,59.19
2022-08-27T07:43:50.378Z,59.08
2022-08-27T07:46:02.061Z,59.10
2022-08-27T07:48:04.003Z,58.82
2022-08-27T07:50:06.342Z,58.68
2022-08-27T07:52:08.025Z,59.08
2022-08-27T07:54:09.708Z,58.74
2022-08-27T07:56:12.333Z,58.56
2022-08-27T07:58:18.103Z,58.60
2022-08-27T08:00:21.570Z,58.46
2022-08-27T08:02:23.403Z,58.45
2022-08-27T08:04:26.692Z,58.34
2022-08-27T08:06:28.443Z,58.61
2022-08-27T08:08:30.117Z,57.96
2022-08-27T08:10:35.379Z,57.82
2022-08-27T08:12:41.053Z,58.24
2022-08-27T08:14:42.815Z,57.66
2022-08-27T08:16:45.209Z,57.98
2022-08-27T08:18:46.991Z,57.86
2022-08-27T08:20:57.981Z,58.13
2022-08-27T08:23:00.520Z,57.21
2022-08-27T08:25:02.329Z,57.33
2022-08-27T08:27:07.361Z,56.83
2022-08-27T08:29:09.510Z,56.83
2022-08-27T08:31:16.597Z,56.17
2022-08-27T08:33:18.390Z,56.00
2022-08-27T08:35:20.844Z,55.66
2022-08-27T08:37:23.115Z,55.97
2022-08-27T08:39:24.925Z,55.76
2022-08-27T08:41:52.424Z,55.48
2022-08-27T08:43:56.359Z,55.41
2022-08-27T08:46:07.996Z,55.30
2022-08-27T08:48:18.054Z,55.24
2022-08-27T08:50:57.963Z,55.31
2022-08-27T08:53:10.202Z,54.55
2022-08-27T08:55:33.624Z,54.50
2022-08-27T08:57:51.818Z,53.60
2022-08-27T09:00:09.389Z,53.05
2022-08-27T09:02:14.617Z,52.20
2022-08-27T09:04:16.452Z,51.81
2022-08-27T09:06:32.310Z,52.42
2022-08-27T09:08:41.172Z,52.38
2022-08-27T09:11:03.771Z,51.97
2022-08-27T09:13:20.194Z,51.98
2022-08-27T09:15:29.749Z,51.98
2022-08-27T09:17:31.522Z,51.59
2022-08-27T09:19:35.096Z,51.42
2022-08-27T09:21:42.440Z,51.39
2022-08-27T09:24:22.970Z,51.27
2022-08-27T09:26:28.723Z,50.95
2022-08-27T09:28:49.413Z,50.65
2022-08-27T09:30:53.061Z,50.07
2022-08-27T09:33:01.274Z,49.67
2022-08-27T09:35:17.147Z,49.02
2022-08-27T09:37:22.418Z,48.63
2022-08-27T09:39:49.274Z,48.65
2022-08-27T09:41:51.989Z,48.59
2022-08-27T09:44:08.542Z,48.33
2022-08-27T09:46:24.379Z,47.94
2022-08-27T09:48:33.781Z,47.05
2022-08-27T09:50:52.334Z,46.94
2022-08-27T09:52:59.165Z,46.72
2022-08-27T09:55:02.934Z,46.60
2022-08-27T09:57:09.388Z,46.21
2022-08-27T09:59:25.610Z,46.40
2022-08-27T10:01:30.686Z,45.91
2022-08-27T10:03:33.770Z,45.59
2022-08-27T10:05:44.862Z,45.24
2022-08-27T10:07:52.687Z,44.70
2022-08-27T10:10:08.437Z,44.22
2022-08-27T10:12:28.469Z,44.32
2022-08-27T10:14:42.583Z,43.60
2022-08-27T10:16:55.708Z,43.58
2022-08-27T10:19:16.070Z,43.42
2022-08-27T10:21:35.530Z,43.89
2022-08-27T10:23:59.082Z,43.57
2022-08-27T10:26:34.078Z,43.06
2022-08-27T10:28:47.959Z,42.94
2022-08-27T10:31:20.670Z,42.92
2022-08-27T10:33:37.759Z,42.68
2022-08-27T10:36:01.184Z,41.49
2022-08-27T10:38:21.781Z,41.18
2022-08-27T10:40:32.380Z,40.92
2022-08-27T10:42:57.577Z,40.88
2022-08-27T10:45:30.883Z,40.73
2022-08-27T10:47:48.335Z,40.89
2022-08-27T10:49:58.718Z,40.37
2022-08-27T10:52:18.885Z,40.48
2022-08-27T10:54:38.340Z,40.97
2022-08-27T10:57:14.488Z,41.10
2022-08-27T10:59:24.333Z,40.32
2022-08-27T11:01:26.055Z,40.08
2022-08-27T11:03:40.697Z,39.89
2022-08-27T11:05:48.372Z,39.47
2022-08-27T11:07:56.296Z,39.25
2022-08-27T11:10:02.243Z,39.25
2022-08-27T11:12:14.414Z,39.33
2022-08-27T11:14:28.567Z,39.63
2022-08-27T11:16:44.759Z,39.73
2022-08-27T11:19:00.442Z,39.44
2022-08-27T11:21:25.220Z,39.28
2022-08-27T11:23:40.644Z,38.66
2022-08-27T11:25:54.118Z,38.74
2022-08-27T11:27:58.148Z,38.97
2022-08-27T11:30:19.473Z,38.31
2022-08-27T11:32:46.844Z,37.85
2022-08-27T11:34:51.593Z,37.15
2022-08-27T11:37:00.239Z,38.00
2022-08-27T11:39:10.606Z,37.78
2022-08-27T11:41:45.100Z,37.88
2022-08-27T11:43:48.028Z,38.34
2022-08-27T11:46:02.892Z,38.38
2022-08-27T11:48:23.440Z,38.40
2022-08-27T11:50:27.419Z,38.20
2022-08-27T11:52:35.291Z,38.03
2022-08-27T11:54:50.411Z,37.25
2022-08-27T11:56:52.360Z,37.32
2022-08-27T11:58:54.067Z,36.95
2022-08-27T12:00:59.904Z,36.81
2022-08-27T12:03:22.540Z,37.05
2022-08-27T12:05:33.131Z,36.80
2022-08-27T12:07:36.381Z,36.48
2022-08-27T12:09:56.218Z,36.14
2022-08-27T12:12:16.195Z,35.81
2022-08-27T12:14:36.360Z,35.88
2022-08-27T12:17:08.508Z,34.91
2022-08-27T12:19:31.736Z,34.50
2022-08-27T12:21:49.522Z,34.10
2022-08-27T12:23:59.886Z,33.97
2022-08-27T12:26:15.602Z,33.59
2022-08-27T12:28:26.726Z,33.62
2022-08-27T12:30:35.596Z,33.63
2022-08-27T12:32:41.497Z,33.76
2022-08-27T12:34:54.545Z,33.39
2022-08-27T12:37:01.975Z,33.85
2022-08-27T12:39:16.684Z,33.12
2022-08-27T12:41:44.401Z,32.89
2022-08-27T12:43:46.545Z,32.70
2022-08-27T12:46:01.077Z,32.03
2022-08-27T12:48:09.073Z,32.22
2022-08-27T12:50:13.307Z,32.35
2022-08-27T12:52:18.077Z,31.80
2022-08-27T12:54:28.888Z,32.05
2022-08-27T12:56:51.436Z,31.48
2022-08-27T12:59:11.659Z,30.93
2022-08-27T13:01:44.496Z,30.97
2022-08-27T13:03:56.069Z,30.79
2022-08-27T13:06:00.564Z,30.91
2022-08-27T13:08:03.532Z,30.34
2022-08-27T13:10:31.378Z,29.99
2022-08-27T13:12:33.040Z,29.99
2022-08-27T13:14:42.596Z,30.27
2022-08-27T13:17:05.796Z,30.56
2022-08-27T13:19:08.364Z,30.18
2022-08-27T13:21:33.144Z,30.11
2022-08-27T13:23:35.505Z,30.02
2022-08-27T13:25:37.391Z,29.89
2022-08-27T13:27:39.638Z,28.95
2022-08-27T13:29:42.822Z,29.07
2022-08-27T13:31:45.468Z,28.64
2022-08-27T13:33:47.848Z,28.45
2022-08-27T13:35:50.992Z,28.22
2022-08-27T13:37:54.769Z,28.06
2022-08-27T13:39:57.504Z,28.26
2022-08-27T13:42:02.704Z,28.53
2022-08-27T13:44:16.640Z,28.63
2022-08-27T13:46:22.843Z,28.79
2022-08-27T13:48:25.146Z,28.43
2022-08-27T13:50:31.871Z,28.55
2022-08-27T13:52:58.060Z,29.19
2022-08-27T13:55:22.693Z,29.11
2022-08-27T13:57:31.595Z,29.00
2022-08-27T13:59:33.366Z,29.20
2022-08-27T14:01:35.261Z,29.91
2022-08-27T14:03:49.536Z,29.78
2022-08-27T14:05:51.842Z,29.58
2022-08-27T14:07:59.912Z,29.54
2022-08-27T14:10:25.511Z,30.11
2022-08-27T14:12:32.853Z,29.36
2022-08-27T14:14:42.278Z,29.60
2022-08-27T14:16:44.150Z,29.68
2022-08-27T14:19:03.901Z,29.89
2022-08-27T14:21:05.773Z,29.76
2022-08-27T14:23:07.514Z,30.00
2022-08-27T14:25:21.543Z,29.51
2022-08-27T14:27:24.431Z,28.76
2022-08-27T14:29:27.898Z,28.51
2022-08-27T14:31:29.703Z,27.90
2022-08-27T14:33:31.507Z,28.70
2022-08-27T14:35:35.969Z,28.80
2022-08-27T14:37:42.718Z,28.62
2022-08-27T14:39:44.971Z,28.70
2022-08-27T14:41:48.430Z,28.84
2022-08-27T14:43:52.287Z,28.75
2022-08-27T14:45:54.463Z,28.38
2022-08-27T14:48:01.956Z,28.95
2022-08-27T14:50:05.396Z,27.72
2022-08-27T14:52:08.694Z,28.36
2022-08-27T14:54:10.512Z,27.24
2022-08-27T14:56:12.250Z,27.74
2022-08-27T14:58:14.847Z,28.96
2022-08-27T15:00:16.751Z,28.81
2022-08-27T15:02:21.232Z,28.41
2022-08-27T15:04:25.162Z,27.66
2022-08-27T15:06:29.393Z,27.37
2022-08-27T15:08:32.242Z,28.92
2022-08-27T15:10:34.142Z,27.54
2022-08-27T15:12:36.487Z,27.96
2022-08-27T15:14:39.247Z,28.88
2022-08-27T15:16:43.366Z,27.90
2022-08-27T15:18:59.307Z,27.99
2022-08-27T15:21:03.065Z,28.91
2022-08-27T15:23:04.853Z,28.52
2022-08-27T15:25:22.017Z,28.83
2022-08-27T15:27:32.119Z,29.65
2022-08-27T15:29:41.011Z,28.86
2022-08-27T15:31:43.543Z,28.64
2022-08-27T15:33:45.738Z,29.77
2022-08-27T15:35:47.403Z,29.15
2022-08-27T15:37:49.546Z,29.38
2022-08-27T15:39:51.458Z,30.17
2022-08-27T15:42:08.624Z,29.49
2022-08-27T15:44:10.507Z,28.81
2022-08-27T15:46:14.778Z,29.89
2022-08-27T15:48:16.514Z,27.82
2022-08-27T15:50:18.299Z,27.46
2022-08-27T15:52:21.952Z,27.43
2022-08-27T15:54:24.223Z,27.07
2022-08-27T15:56:28.628Z,27.99
2022-08-27T15:58:32.999Z,27.01
2022-08-27T16:00:36.162Z,28.10
2022-08-27T16:02:37.889Z,27.32
2022-08-27T16:04:39.616Z,26.86
2022-08-27T16:06:41.372Z,27.39
2022-08-27T16:08:43.305Z,26.92
2022-08-27T16:10:45.060Z,27.84
2022-08-27T16:12:46.804Z,27.92
2022-08-27T16:14:48.734Z,27.39
2022-08-27T16:16:50.584Z,27.67
2022-08-27T16:18:52.536Z,27.18
2022-08-27T16:20:56.530Z,27.32
2022-08-27T16:22:58.698Z,27.62
2022-08-27T16:25:01.293Z,26.97
2022-08-27T16:27:03.109Z,27.35
2022-08-27T16:29:06.165Z,28.23
2022-08-27T16:31:10.422Z,27.33
2022-08-27T16:33:14.603Z,28.23
2022-08-27T16:35:18.748Z,27.84
2022-08-27T16:37:20.828Z,27.87
2022-08-27T16:39:23.527Z,28.02
2022-08-27T16:41:25.263Z,28.87
2022-08-27T16:43:28.168Z,28.18
2022-08-27T16:45:30.539Z,28.85
2022-08-27T16:47:32.252Z,28.56
2022-08-27T16:49:52.526Z,28.88
2022-08-27T16:51:55.390Z,29.44
2022-08-27T16:53:57.414Z,29.31
2022-08-27T16:56:00.291Z,29.44
2022-08-27T16:58:02.242Z,29.37
2022-08-27T17:00:06.236Z,30.05
2022-08-27T17:02:20.017Z,30.33
2022-08-27T17:04:30.274Z,29.79
2022-08-27T17:06:33.112Z,29.64
2022-08-27T17:08:47.609Z,29.67
2022-08-27T17:10:52.398Z,31.17
2022-08-27T17:12:54.351Z,32.37
2022-08-27T17:15:00.481Z,32.98
2022-08-27T17:17:02.155Z,34.00
2022-08-27T17:19:05.921Z,34.17
2022-08-27T17:21:07.785Z,35.02
2022-08-27T17:23:18.888Z,36.49
2022-08-27T17:25:20.755Z,37.03
2022-08-27T17:27:31.042Z,37.54
2022-08-27T17:29:32.781Z,37.54
2022-08-27T17:31:37.284Z,37.80
2022-08-27T17:33:47.820Z,38.15
2022-08-27T17:35:49.425Z,38.41
2022-08-27T17:37:51.119Z,38.53
2022-08-27T17:39:53.371Z,38.76
2022-08-27T17:41:56.156Z,39.05
2022-08-27T17:44:01.673Z,39.81
2022-08-27T17:46:04.163Z,39.47
2022-08-27T17:48:06.012Z,39.95
2022-08-27T17:50:16.954Z,40.04
2022-08-27T17:52:18.726Z,40.33
2022-08-27T17:54:54.435Z,40.13
2022-08-27T17:56:56.540Z,40.51
2022-08-27T17:58:58.333Z,41.03
2022-08-27T18:01:00.253Z,41.50
2022-08-27T18:03:04.346Z,41.66
2022-08-27T18:05:15.351Z,42.01
2022-08-27T18:07:17.829Z,42.38
2022-08-27T18:09:19.516Z,42.61
2022-08-27T18:11:21.781Z,42.66
2022-08-27T18:13:23.841Z,42.93
2022-08-27T18:15:28.487Z,43.24
2022-08-27T18:17:31.204Z,43.21
2022-08-27T18:19:33.435Z,43.69
2022-08-27T18:21:46.664Z,43.82
2022-08-27T18:23:49.034Z,44.15
2022-08-27T18:25:51.739Z,44.33
2022-08-27T18:27:57.307Z,44.35
2022-08-27T18:29:59.457Z,44.33
2022-08-27T18:32:01.142Z,44.85
2022-08-27T18:34:03.036Z,44.93
2022-08-27T18:36:06.683Z,45.04
2022-08-27T18:38:09.713Z,45.36
2022-08-27T18:40:14.252Z,45.34
2022-08-27T18:42:18.004Z,45.60
2022-08-27T18:44:20.288Z,45.90
2022-08-27T18:46:23.314Z,45.93
2022-08-27T18:48:25.504Z,46.09
2022-08-27T18:50:28.023Z,45.95
2022-08-27T18:52:30.150Z,46.16
2022-08-27T18:54:32.420Z,46.34
2022-08-27T18:56:34.535Z,46.31
2022-08-27T18:58:39.018Z,45.93
2022-08-27T19:00:48.622Z,46.64
2022-08-27T19:02:53.009Z,46.51
2022-08-27T19:04:55.490Z,46.80
2022-08-27T19:06:57.443Z,47.09
2022-08-27T19:08:59.639Z,46.83
2022-08-27T19:11:02.981Z,46.83
2022-08-27T19:13:05.139Z,47.46
2022-08-27T19:15:15.412Z,47.22
2022-08-27T19:17:28.100Z,47.17
2022-08-27T19:19:30.183Z,48.16
2022-08-27T19:21:32.270Z,48.46
2022-08-27T19:23:35.801Z,49.38
2022-08-27T19:25:38.002Z,49.39
2022-08-27T19:27:40.151Z,49.29
2022-08-27T19:29:42.131Z,49.25
2022-08-27T19:31:44.318Z,49.25
2022-08-27T19:33:46.458Z,49.62
2022-08-27T19:35:48.687Z,49.44
2022-08-27T19:37:52.981Z,49.47
2022-08-27T19:39:55.869Z,49.66
2022-08-27T19:41:58.227Z,49.49
2022-08-27T19:44:00.696Z,49.47
2022-08-27T19:46:04.926Z,49.51
2022-08-27T19:48:09.797Z,49.34
2022-08-27T19:50:15.720Z,49.16
2022-08-27T19:52:18.035Z,49.35
2022-08-27T19:54:21.063Z,49.31
2022-08-27T19:56:23.269Z,49.37
2022-08-27T19:58:25.324Z,49.58
2022-08-27T20:00:27.789Z,49.25
2022-08-27T20:02:29.917Z,49.68
2022-08-27T20:04:35.714Z,49.29
2022-08-27T20:06:41.930Z,49.41
2022-08-27T20:08:44.082Z,49.62
2022-08-27T20:10:47.809Z,49.59
2022-08-27T20:12:50.252Z,50.20
2022-08-27T20:14:52.336Z,49.73
2022-08-27T20:16:54.758Z,49.69
2022-08-27T20:19:00.268Z,49.97
2022-08-27T20:21:05.811Z,50.09
2022-08-27T20:23:09.453Z,50.48
2022-08-27T20:25:16.811Z,50.29
2022-08-27T20:27:18.795Z,50.42
2022-08-27T20:29:32.218Z,50.38
2022-08-27T20:31:35.481Z,50.28
2022-08-27T20:33:37.679Z,50.41
2022-08-27T20:35:40.174Z,50.41
2022-08-27T20:37:42.702Z,50.63
2022-08-27T20:39:44.961Z,50.42
2022-08-27T20:41:47.398Z,50.62
2022-08-27T20:43:50.816Z,50.65
2022-08-27T20:45:53.082Z,50.80
2022-08-27T20:47:58.300Z,50.51
2022-08-27T20:50:03.403Z,50.75
2022-08-27T20:52:08.609Z,50.62
2022-08-27T20:54:13.169Z,50.11
2022-08-27T20:56:15.521Z,50.07
2022-08-27T20:58:35.956Z,49.99
2022-08-27T21:00:43.001Z,49.81
2022-08-27T21:02:47.100Z,49.90
2022-08-27T21:04:49.221Z,49.89
2022-08-27T21:06:51.333Z,50.49
2022-08-27T21:08:53.550Z,50.67
2022-08-27T21:10:57.239Z,51.21
2022-08-27T21:13:02.301Z,51.28
2022-08-27T21:15:14.686Z,51.47
2022-08-27T21:17:16.797Z,51.27
2022-08-27T21:19:19.137Z,51.14
2022-08-27T21:21:21.204Z,51.17
2022-08-27T21:23:25.578Z,51.06
2022-08-27T21:25:28.188Z,50.89
2022-08-27T21:27:30.525Z,51.10
2022-08-27T21:29:32.389Z,50.83
2022-08-27T21:31:34.463Z,51.08
2022-08-27T21:33:39.516Z,50.89
2022-08-27T21:35:41.896Z,51.02
2022-08-27T21:37:44.060Z,50.98
2022-08-27T21:39:46.289Z,50.67
2022-08-27T21:41:48.565Z,51.16
2022-08-27T21:43:51.444Z,50.83
2022-08-27T21:45:56.114Z,51.32
2022-08-27T21:47:58.145Z,51.10
2022-08-27T21:49:59.953Z,51.35
2022-08-27T21:52:03.608Z,51.47
2022-08-27T21:54:05.374Z,51.38
2022-08-27T21:56:07.788Z,51.16
2022-08-27T21:58:09.615Z,51.18
2022-08-27T22:00:27.946Z,51.28
2022-08-27T22:02:39.876Z,51.29
2022-08-27T22:04:42.351Z,51.27
2022-08-27T22:06:44.125Z,51.40
2022-08-27T22:08:45.850Z,51.44
2022-08-27T22:10:52.678Z,51.40
2022-08-27T22:12:54.453Z,51.34
2022-08-27T22:15:01.817Z,51.59
2022-08-27T22:17:04.267Z,51.52
2022-08-27T22:19:05.970Z,51.64
2022-08-27T22:21:07.858Z,51.51
2022-08-27T22:23:12.186Z,51.70
2022-08-27T22:25:22.552Z,51.78
2022-08-27T22:27:24.273Z,51.77
2022-08-27T22:29:26.071Z,51.80
2022-08-27T22:31:27.850Z,51.84
2022-08-27T22:33:29.769Z,52.09
2022-08-27T22:35:32.002Z,51.93
2022-08-27T22:37:33.711Z,51.95
2022-08-27T22:39:35.700Z,51.96
2022-08-27T22:41:37.604Z,51.96
2022-08-27T22:43:43.666Z,51.98
2022-08-27T22:45:45.507Z,52.04
2022-08-27T22:47:47.824Z,52.01
2022-08-27T22:49:52.718Z,52.28
2022-08-27T22:51:55.123Z,52.43
2022-08-27T22:53:56.954Z,52.57
2022-08-27T22:55:59.789Z,52.49
2022-08-27T22:58:02.250Z,52.62
2022-08-27T23:00:14.285Z,52.65
2022-08-27T23:02:16.328Z,52.80
2022-08-27T23:04:18.666Z,52.60
2022-08-27T23:06:21.791Z,52.78
2022-08-27T23:08:23.696Z,53.01
2022-08-27T23:10:25.599Z,52.95
2022-08-27T23:12:27.362Z,53.20
2022-08-27T23:14:33.368Z,52.98
2022-08-27T23:16:35.304Z,53.07
2022-08-27T23:18:39.017Z,53.15
2022-08-27T23:20:40.926Z,53.11
2022-08-27T23:22:43.018Z,53.22
2022-08-27T23:25:07.252Z,53.24
2022-08-27T23:27:27.469Z,53.21
2022-08-27T23:29:29.419Z,53.51
2022-08-27T23:31:31.799Z,53.22
2022-08-27T23:33:33.557Z,53.20
2022-08-27T23:35:35.440Z,53.29
2022-08-27T23:37:37.198Z,53.21
2022-08-27T23:39:38.989Z,53.43
2022-08-27T23:41:41.307Z,53.21
2022-08-27T23:43:43.681Z,53.03
2022-08-27T23:45:45.512Z,53.32
2022-08-27T23:47:47.346Z,53.13
2022-08-27T23:49:49.106Z,53.34
2022-08-27T23:51:50.816Z,53.46
2022-08-27T23:53:52.511Z,53.46
2022-08-27T23:55:54.208Z,53.45
2022-08-27T23:57:57.876Z,53.45
2022-08-27T23:59:59.657Z,53.43
